sensor_id;sensor_type;location;lat;lon;timestamp;P1;durP1;ratioP1;P2;durP2;ratioP2
70946;SDS011;58605;48.700;8.760;2023-07-29T00:01:40;422.40;;;24.77;;
70946;SDS011;58605;48.700;8.760;2023-07-29T00:04:06;278.33;;;17.43;;
70946;SDS011;58605;48.700;8.760;2023-07-29T00:06:34;34.50;;;3.90;;
70946;SDS011;58605;48.700;8.760;2023-07-29T00:09:00;150.07;;;11.00;;
70946;SDS011;58605;48.700;8.760;2023-07-29T00:11:28;191.60;;;10.47;;
70946;SDS011;58605;48.700;8.760;2023-07-29T00:13:54;143.13;;;7.70;;
70946;SDS011;58605;48.700;8.760;2023-07-29T00:16:20;124.93;;;7.90;;
70946;SDS011;58605;48.700;8.760;2023-07-29T00:18:47;4.17;;;1.90;;
70946;SDS011;58605;48.700;8.760;2023-07-29T00:21:13;3.53;;;2.00;;
70946;SDS011;58605;48.700;8.760;2023-07-29T00:23:39;4.70;;;1.83;;
70946;SDS011;58605;48.700;8.760;2023-07-29T00:26:05;2.50;;;1.77;;
70946;SDS011;58605;48.700;8.760;2023-07-29T00:28:33;2.33;;;2.13;;
70946;SDS011;58605;48.700;8.760;2023-07-29T00:30:59;2.93;;;2.07;;
70946;SDS011;58605;48.700;8.760;2023-07-29T00:33:26;3.67;;;1.80;;
70946;SDS011;58605;48.700;8.760;2023-07-29T00:35:52;4.50;;;2.07;;
70946;SDS011;58605;48.700;8.760;2023-07-29T00:38:18;2.47;;;1.80;;
70946;SDS011;58605;48.700;8.760;2023-07-29T00:40:44;3.83;;;1.83;;
70946;SDS011;58605;48.700;8.760;2023-07-29T00:43:10;3.97;;;2.10;;
70946;SDS011;58605;48.700;8.760;2023-07-29T00:45:38;2.80;;;1.90;;
70946;SDS011;58605;48.700;8.760;2023-07-29T00:48:04;3.70;;;2.13;;
70946;SDS011;58605;48.700;8.760;2023-07-29T00:50:30;2.30;;;1.70;;
70946;SDS011;58605;48.700;8.760;2023-07-29T00:52:58;2.63;;;2.00;;
70946;SDS011;58605;48.700;8.760;2023-07-29T00:55:24;4.27;;;2.03;;
70946;SDS011;58605;48.700;8.760;2023-07-29T00:57:51;3.30;;;1.80;;
70946;SDS011;58605;48.700;8.760;2023-07-29T01:00:19;3.30;;;1.90;;
70946;SDS011;58605;48.700;8.760;2023-07-29T01:02:48;4.17;;;2.00;;
70946;SDS011;58605;48.700;8.760;2023-07-29T01:05:14;3.60;;;1.90;;
70946;SDS011;58605;48.700;8.760;2023-07-29T01:07:44;4.57;;;1.70;;
70946;SDS011;58605;48.700;8.760;2023-07-29T01:10:15;4.43;;;1.60;;
70946;SDS011;58605;48.700;8.760;2023-07-29T01:12:54;2.10;;;1.90;;
70946;SDS011;58605;48.700;8.760;2023-07-29T01:15:26;45.23;;;5.10;;
70946;SDS011;58605;48.700;8.760;2023-07-29T01:18:02;82.70;;;5.67;;
70946;SDS011;58605;48.700;8.760;2023-07-29T01:20:32;88.80;;;6.33;;
70946;SDS011;58605;48.700;8.760;2023-07-29T01:22:59;58.10;;;4.20;;
70946;SDS011;58605;48.700;8.760;2023-07-29T01:25:26;204.97;;;11.63;;
70946;SDS011;58605;48.700;8.760;2023-07-29T01:27:53;324.00;;;17.97;;
70946;SDS011;58605;48.700;8.760;2023-07-29T01:30:20;132.87;;;9.03;;
70946;SDS011;58605;48.700;8.760;2023-07-29T01:32:52;251.57;;;12.87;;
70946;SDS011;58605;48.700;8.760;2023-07-29T01:35:22;267.03;;;14.60;;
70946;SDS011;58605;48.700;8.760;2023-07-29T01:37:53;183.80;;;10.67;;
70946;SDS011;58605;48.700;8.760;2023-07-29T01:40:21;184.60;;;9.97;;
70946;SDS011;58605;48.700;8.760;2023-07-29T01:42:51;207.87;;;11.50;;
70946;SDS011;58605;48.700;8.760;2023-07-29T01:45:18;164.63;;;9.30;;
70946;SDS011;58605;48.700;8.760;2023-07-29T01:47:48;125.57;;;8.57;;
70946;SDS011;58605;48.700;8.760;2023-07-29T01:50:14;75.10;;;5.60;;
70946;SDS011;58605;48.700;8.760;2023-07-29T01:52:40;180.93;;;9.20;;
70946;SDS011;58605;48.700;8.760;2023-07-29T01:55:06;87.30;;;5.43;;
70946;SDS011;58605;48.700;8.760;2023-07-29T01:57:33;38.50;;;3.17;;
70946;SDS011;58605;48.700;8.760;2023-07-29T02:00:01;34.10;;;2.30;;
70946;SDS011;58605;48.700;8.760;2023-07-29T02:02:29;12.20;;;2.40;;
70946;SDS011;58605;48.700;8.760;2023-07-29T02:04:55;3.33;;;1.60;;
70946;SDS011;58605;48.700;8.760;2023-07-29T02:07:21;5.40;;;1.90;;
70946;SDS011;58605;48.700;8.760;2023-07-29T02:09:47;61.50;;;4.50;;
70946;SDS011;58605;48.700;8.760;2023-07-29T02:12:14;181.70;;;9.93;;
70946;SDS011;58605;48.700;8.760;2023-07-29T02:14:40;246.93;;;13.30;;
70946;SDS011;58605;48.700;8.760;2023-07-29T02:17:07;191.93;;;11.03;;
70946;SDS011;58605;48.700;8.760;2023-07-29T02:19:34;250.10;;;13.90;;
70946;SDS011;58605;48.700;8.760;2023-07-29T02:22:00;168.47;;;11.37;;
70946;SDS011;58605;48.700;8.760;2023-07-29T02:24:26;3.10;;;2.20;;
70946;SDS011;58605;48.700;8.760;2023-07-29T02:26:52;2.73;;;2.23;;
70946;SDS011;58605;48.700;8.760;2023-07-29T02:29:18;10.07;;;2.83;;
70946;SDS011;58605;48.700;8.760;2023-07-29T02:31:45;2.20;;;2.00;;
70946;SDS011;58605;48.700;8.760;2023-07-29T02:34:12;2.67;;;1.90;;
70946;SDS011;58605;48.700;8.760;2023-07-29T02:36:39;2.00;;;1.57;;
70946;SDS011;58605;48.700;8.760;2023-07-29T02:39:05;4.43;;;1.93;;
70946;SDS011;58605;48.700;8.760;2023-07-29T02:41:37;1.90;;;1.47;;
70946;SDS011;58605;48.700;8.760;2023-07-29T02:44:10;2.40;;;1.40;;
70946;SDS011;58605;48.700;8.760;2023-07-29T02:46:36;1.60;;;1.40;;
70946;SDS011;58605;48.700;8.760;2023-07-29T02:49:03;2.27;;;1.83;;
70946;SDS011;58605;48.700;8.760;2023-07-29T02:51:31;4.17;;;2.27;;
70946;SDS011;58605;48.700;8.760;2023-07-29T02:54:03;2.20;;;1.70;;
70946;SDS011;58605;48.700;8.760;2023-07-29T02:56:29;1.87;;;1.70;;
70946;SDS011;58605;48.700;8.760;2023-07-29T02:58:56;1.80;;;1.60;;
70946;SDS011;58605;48.700;8.760;2023-07-29T03:01:22;2.13;;;1.90;;
70946;SDS011;58605;48.700;8.760;2023-07-29T03:03:50;5.20;;;1.70;;
70946;SDS011;58605;48.700;8.760;2023-07-29T03:06:16;3.50;;;1.60;;
70946;SDS011;58605;48.700;8.760;2023-07-29T03:08:44;1.90;;;1.70;;
70946;SDS011;58605;48.700;8.760;2023-07-29T03:11:10;3.20;;;1.60;;
70946;SDS011;58605;48.700;8.760;2023-07-29T03:13:37;3.07;;;2.10;;
70946;SDS011;58605;48.700;8.760;2023-07-29T03:16:07;3.47;;;1.97;;
70946;SDS011;58605;48.700;8.760;2023-07-29T03:18:33;3.13;;;2.00;;
70946;SDS011;58605;48.700;8.760;2023-07-29T03:21:00;2.53;;;1.90;;
70946;SDS011;58605;48.700;8.760;2023-07-29T03:23:26;2.13;;;1.57;;
70946;SDS011;58605;48.700;8.760;2023-07-29T03:25:55;4.47;;;1.50;;
70946;SDS011;58605;48.700;8.760;2023-07-29T03:28:23;4.07;;;1.70;;
70946;SDS011;58605;48.700;8.760;2023-07-29T03:30:50;2.10;;;1.63;;
70946;SDS011;58605;48.700;8.760;2023-07-29T03:33:16;3.72;;;1.42;;
70946;SDS011;58605;48.700;8.760;2023-07-29T03:35:42;2.87;;;2.43;;
70946;SDS011;58605;48.700;8.760;2023-07-29T03:38:09;56.47;;;4.97;;
70946;SDS011;58605;48.700;8.760;2023-07-29T03:40:36;2.80;;;1.63;;
70946;SDS011;58605;48.700;8.760;2023-07-29T03:43:03;3.77;;;1.90;;
70946;SDS011;58605;48.700;8.760;2023-07-29T03:45:30;4.07;;;2.00;;
70946;SDS011;58605;48.700;8.760;2023-07-29T03:47:56;5.20;;;1.77;;
70946;SDS011;58605;48.700;8.760;2023-07-29T03:50:22;2.43;;;1.60;;
70946;SDS011;58605;48.700;8.760;2023-07-29T03:52:49;4.63;;;1.70;;
70946;SDS011;58605;48.700;8.760;2023-07-29T03:55:15;1.87;;;1.43;;
70946;SDS011;58605;48.700;8.760;2023-07-29T03:57:41;3.03;;;1.50;;
70946;SDS011;58605;48.700;8.760;2023-07-29T04:00:09;5.93;;;2.07;;
70946;SDS011;58605;48.700;8.760;2023-07-29T04:02:36;6.27;;;2.50;;
70946;SDS011;58605;48.700;8.760;2023-07-29T04:05:03;4.50;;;1.90;;
70946;SDS011;58605;48.700;8.760;2023-07-29T04:07:30;5.50;;;1.67;;
70946;SDS011;58605;48.700;8.760;2023-07-29T04:09:56;3.93;;;1.93;;
70946;SDS011;58605;48.700;8.760;2023-07-29T04:12:22;1.80;;;1.40;;
70946;SDS011;58605;48.700;8.760;2023-07-29T04:14:48;1.40;;;1.23;;
70946;SDS011;58605;48.700;8.760;2023-07-29T04:17:16;6.13;;;1.80;;
70946;SDS011;58605;48.700;8.760;2023-07-29T04:19:42;1.83;;;1.20;;
70946;SDS011;58605;48.700;8.760;2023-07-29T04:22:08;2.00;;;1.40;;
70946;SDS011;58605;48.700;8.760;2023-07-29T04:24:34;4.60;;;1.97;;
70946;SDS011;58605;48.700;8.760;2023-07-29T04:27:00;1.93;;;1.47;;
70946;SDS011;58605;48.700;8.760;2023-07-29T04:29:26;6.77;;;2.33;;
70946;SDS011;58605;48.700;8.760;2023-07-29T04:31:52;3.00;;;2.00;;
70946;SDS011;58605;48.700;8.760;2023-07-29T04:34:20;2.47;;;1.97;;
70946;SDS011;58605;48.700;8.760;2023-07-29T04:36:46;2.20;;;1.67;;
70946;SDS011;58605;48.700;8.760;2023-07-29T04:39:13;2.10;;;1.53;;
70946;SDS011;58605;48.700;8.760;2023-07-29T04:41:39;2.30;;;1.63;;
70946;SDS011;58605;48.700;8.760;2023-07-29T04:44:05;3.43;;;1.60;;
70946;SDS011;58605;48.700;8.760;2023-07-29T04:46:32;4.67;;;2.00;;
70946;SDS011;58605;48.700;8.760;2023-07-29T04:48:58;2.07;;;1.67;;
70946;SDS011;58605;48.700;8.760;2023-07-29T04:51:25;2.23;;;1.60;;
70946;SDS011;58605;48.700;8.760;2023-07-29T04:53:51;2.50;;;1.80;;
70946;SDS011;58605;48.700;8.760;2023-07-29T04:56:17;1.27;;;1.17;;
70946;SDS011;58605;48.700;8.760;2023-07-29T04:58:43;3.57;;;1.40;;
70946;SDS011;58605;48.700;8.760;2023-07-29T05:01:10;1.50;;;1.10;;
70946;SDS011;58605;48.700;8.760;2023-07-29T05:03:36;6.93;;;1.50;;
70946;SDS011;58605;48.700;8.760;2023-07-29T05:06:03;2.33;;;1.37;;
70946;SDS011;58605;48.700;8.760;2023-07-29T05:08:30;1.20;;;1.10;;
70946;SDS011;58605;48.700;8.760;2023-07-29T05:10:56;2.07;;;1.60;;
70946;SDS011;58605;48.700;8.760;2023-07-29T05:13:23;1.33;;;1.23;;
70946;SDS011;58605;48.700;8.760;2023-07-29T05:15:49;2.23;;;1.60;;
70946;SDS011;58605;48.700;8.760;2023-07-29T05:18:16;3.93;;;1.43;;
70946;SDS011;58605;48.700;8.760;2023-07-29T05:20:42;1.53;;;1.30;;
70946;SDS011;58605;48.700;8.760;2023-07-29T05:23:09;1.13;;;1.03;;
70946;SDS011;58605;48.700;8.760;2023-07-29T05:25:36;1.57;;;1.43;;
70946;SDS011;58605;48.700;8.760;2023-07-29T05:28:02;1.70;;;1.47;;
70946;SDS011;58605;48.700;8.760;2023-07-29T05:30:29;3.33;;;1.30;;
70946;SDS011;58605;48.700;8.760;2023-07-29T05:33:02;1.70;;;1.60;;
70946;SDS011;58605;48.700;8.760;2023-07-29T05:35:28;2.90;;;1.50;;
70946;SDS011;58605;48.700;8.760;2023-07-29T05:37:54;4.53;;;1.63;;
70946;SDS011;58605;48.700;8.760;2023-07-29T05:40:20;3.65;;;1.40;;
70946;SDS011;58605;48.700;8.760;2023-07-29T05:42:48;2.60;;;1.53;;
70946;SDS011;58605;48.700;8.760;2023-07-29T05:45:14;2.88;;;1.63;;
70946;SDS011;58605;48.700;8.760;2023-07-29T05:47:41;2.35;;;1.60;;
70946;SDS011;58605;48.700;8.760;2023-07-29T05:50:07;2.53;;;1.70;;
70946;SDS011;58605;48.700;8.760;2023-07-29T05:52:34;3.15;;;1.83;;
70946;SDS011;58605;48.700;8.760;2023-07-29T05:55:00;4.60;;;1.60;;
70946;SDS011;58605;48.700;8.760;2023-07-29T05:57:26;2.08;;;1.65;;
70946;SDS011;58605;48.700;8.760;2023-07-29T05:59:54;2.10;;;1.58;;
70946;SDS011;58605;48.700;8.760;2023-07-29T06:02:22;2.08;;;1.20;;
70946;SDS011;58605;48.700;8.760;2023-07-29T06:04:48;1.73;;;1.00;;
70946;SDS011;58605;48.700;8.760;2023-07-29T06:07:14;2.27;;;1.20;;
70946;SDS011;58605;48.700;8.760;2023-07-29T06:09:40;1.93;;;1.30;;
70946;SDS011;58605;48.700;8.760;2023-07-29T06:12:07;1.40;;;1.30;;
70946;SDS011;58605;48.700;8.760;2023-07-29T06:14:33;7.70;;;1.57;;
70946;SDS011;58605;48.700;8.760;2023-07-29T06:17:01;1.87;;;1.00;;
70946;SDS011;58605;48.700;8.760;2023-07-29T06:19:27;1.33;;;1.23;;
70946;SDS011;58605;48.700;8.760;2023-07-29T06:21:54;1.37;;;1.23;;
70946;SDS011;58605;48.700;8.760;2023-07-29T06:24:21;1.90;;;1.10;;
70946;SDS011;58605;48.700;8.760;2023-07-29T06:26:47;1.23;;;1.00;;
70946;SDS011;58605;48.700;8.760;2023-07-29T06:29:13;1.93;;;1.27;;
70946;SDS011;58605;48.700;8.760;2023-07-29T06:31:39;1.93;;;1.03;;
70946;SDS011;58605;48.700;8.760;2023-07-29T06:34:07;1.23;;;1.13;;
70946;SDS011;58605;48.700;8.760;2023-07-29T06:36:33;2.40;;;1.33;;
70946;SDS011;58605;48.700;8.760;2023-07-29T06:38:59;1.40;;;1.30;;
70946;SDS011;58605;48.700;8.760;2023-07-29T06:41:25;1.40;;;1.23;;
70946;SDS011;58605;48.700;8.760;2023-07-29T06:43:51;1.77;;;1.30;;
70946;SDS011;58605;48.700;8.760;2023-07-29T06:46:17;2.77;;;1.50;;
70946;SDS011;58605;48.700;8.760;2023-07-29T06:48:43;2.53;;;1.63;;
70946;SDS011;58605;48.700;8.760;2023-07-29T06:51:11;3.20;;;1.30;;
70946;SDS011;58605;48.700;8.760;2023-07-29T06:53:37;2.07;;;1.50;;
70946;SDS011;58605;48.700;8.760;2023-07-29T06:56:03;1.70;;;1.27;;
70946;SDS011;58605;48.700;8.760;2023-07-29T06:58:30;3.47;;;1.93;;
70946;SDS011;58605;48.700;8.760;2023-07-29T07:00:56;4.83;;;1.57;;
70946;SDS011;58605;48.700;8.760;2023-07-29T07:03:22;2.90;;;1.40;;
70946;SDS011;58605;48.700;8.760;2023-07-29T07:05:48;3.40;;;1.83;;
70946;SDS011;58605;48.700;8.760;2023-07-29T07:08:16;3.40;;;2.03;;
70946;SDS011;58605;48.700;8.760;2023-07-29T07:10:42;2.33;;;1.73;;
70946;SDS011;58605;48.700;8.760;2023-07-29T07:13:08;3.63;;;1.63;;
70946;SDS011;58605;48.700;8.760;2023-07-29T07:15:34;1.30;;;1.17;;
70946;SDS011;58605;48.700;8.760;2023-07-29T07:18:00;3.57;;;1.50;;
70946;SDS011;58605;48.700;8.760;2023-07-29T07:20:27;1.50;;;1.40;;
70946;SDS011;58605;48.700;8.760;2023-07-29T07:22:53;1.63;;;1.43;;
70946;SDS011;58605;48.700;8.760;2023-07-29T07:25:20;1.40;;;1.30;;
70946;SDS011;58605;48.700;8.760;2023-07-29T07:27:46;1.67;;;1.47;;
70946;SDS011;58605;48.700;8.760;2023-07-29T07:30:13;2.40;;;1.20;;
70946;SDS011;58605;48.700;8.760;2023-07-29T07:32:39;2.47;;;1.30;;
70946;SDS011;58605;48.700;8.760;2023-07-29T07:35:06;1.53;;;1.43;;
70946;SDS011;58605;48.700;8.760;2023-07-29T07:37:32;2.33;;;1.30;;
70946;SDS011;58605;48.700;8.760;2023-07-29T07:39:58;1.23;;;1.00;;
70946;SDS011;58605;48.700;8.760;2023-07-29T07:42:26;1.40;;;1.30;;
70946;SDS011;58605;48.700;8.760;2023-07-29T07:44:52;1.10;;;1.00;;
70946;SDS011;58605;48.700;8.760;2023-07-29T07:47:18;1.70;;;1.00;;
70946;SDS011;58605;48.700;8.760;2023-07-29T07:49:44;1.00;;;0.93;;
70946;SDS011;58605;48.700;8.760;2023-07-29T07:52:10;1.23;;;1.10;;
70946;SDS011;58605;48.700;8.760;2023-07-29T07:54:36;4.03;;;1.20;;
70946;SDS011;58605;48.700;8.760;2023-07-29T07:57:03;3.30;;;1.20;;
70946;SDS011;58605;48.700;8.760;2023-07-29T07:59:31;1.83;;;1.33;;
70946;SDS011;58605;48.700;8.760;2023-07-29T08:01:57;1.40;;;1.30;;
70946;SDS011;58605;48.700;8.760;2023-07-29T08:04:23;1.17;;;1.00;;
70946;SDS011;58605;48.700;8.760;2023-07-29T08:06:49;3.20;;;1.10;;
70946;SDS011;58605;48.700;8.760;2023-07-29T08:09:15;1.53;;;1.30;;
70946;SDS011;58605;48.700;8.760;2023-07-29T08:11:42;1.65;;;1.33;;
70946;SDS011;58605;48.700;8.760;2023-07-29T08:14:08;2.87;;;1.10;;
70946;SDS011;58605;48.700;8.760;2023-07-29T08:16:35;1.70;;;1.07;;
70946;SDS011;58605;48.700;8.760;2023-07-29T08:19:01;2.17;;;1.27;;
70946;SDS011;58605;48.700;8.760;2023-07-29T08:21:28;3.43;;;1.93;;
70946;SDS011;58605;48.700;8.760;2023-07-29T08:23:54;1.83;;;1.20;;
70946;SDS011;58605;48.700;8.760;2023-07-29T08:26:20;1.60;;;1.23;;
70946;SDS011;58605;48.700;8.760;2023-07-29T08:28:46;3.03;;;1.30;;
70946;SDS011;58605;48.700;8.760;2023-07-29T08:31:13;1.43;;;1.33;;
70946;SDS011;58605;48.700;8.760;2023-07-29T08:33:41;2.90;;;1.50;;
70946;SDS011;58605;48.700;8.760;2023-07-29T08:36:07;2.93;;;1.23;;
70946;SDS011;58605;48.700;8.760;2023-07-29T08:38:33;5.17;;;1.43;;
70946;SDS011;58605;48.700;8.760;2023-07-29T08:41:02;4.10;;;1.52;;
70946;SDS011;58605;48.700;8.760;2023-07-29T08:43:43;2.27;;;1.10;;
70946;SDS011;58605;48.700;8.760;2023-07-29T08:46:14;2.47;;;1.23;;
70946;SDS011;58605;48.700;8.760;2023-07-29T08:48:43;1.67;;;1.17;;
70946;SDS011;58605;48.700;8.760;2023-07-29T08:51:09;2.43;;;2.13;;
70946;SDS011;58605;48.700;8.760;2023-07-29T08:53:36;1.52;;;1.42;;
70946;SDS011;58605;48.700;8.760;2023-07-29T08:56:02;1.45;;;1.20;;
70946;SDS011;58605;48.700;8.760;2023-07-29T08:58:30;4.93;;;2.13;;
70946;SDS011;58605;48.700;8.760;2023-07-29T09:00:57;3.10;;;1.60;;
70946;SDS011;58605;48.700;8.760;2023-07-29T09:03:23;1.67;;;1.40;;
70946;SDS011;58605;48.700;8.760;2023-07-29T09:05:51;2.27;;;1.60;;
70946;SDS011;58605;48.700;8.760;2023-07-29T09:08:18;3.00;;;1.60;;
70946;SDS011;58605;48.700;8.760;2023-07-29T09:10:46;2.10;;;1.27;;
70946;SDS011;58605;48.700;8.760;2023-07-29T09:13:12;1.90;;;1.57;;
70946;SDS011;58605;48.700;8.760;2023-07-29T09:15:38;1.80;;;1.53;;
70946;SDS011;58605;48.700;8.760;2023-07-29T09:18:08;1.63;;;1.23;;
70946;SDS011;58605;48.700;8.760;2023-07-29T09:20:35;2.67;;;1.40;;
70946;SDS011;58605;48.700;8.760;2023-07-29T09:23:03;2.07;;;1.37;;
70946;SDS011;58605;48.700;8.760;2023-07-29T09:25:32;2.30;;;1.67;;
70946;SDS011;58605;48.700;8.760;2023-07-29T09:27:58;1.55;;;1.45;;
70946;SDS011;58605;48.700;8.760;2023-07-29T09:30:28;2.95;;;2.17;;
70946;SDS011;58605;48.700;8.760;2023-07-29T09:32:55;2.60;;;1.90;;
70946;SDS011;58605;48.700;8.760;2023-07-29T09:35:21;2.23;;;1.77;;
70946;SDS011;58605;48.700;8.760;2023-07-29T09:37:48;5.03;;;1.48;;
70946;SDS011;58605;48.700;8.760;2023-07-29T09:40:35;3.53;;;2.27;;
70946;SDS011;58605;48.700;8.760;2023-07-29T09:43:02;2.13;;;1.77;;
70946;SDS011;58605;48.700;8.760;2023-07-29T09:45:29;1.43;;;1.30;;
70946;SDS011;58605;48.700;8.760;2023-07-29T09:47:56;3.47;;;1.90;;
70946;SDS011;58605;48.700;8.760;2023-07-29T09:50:23;2.10;;;1.90;;
70946;SDS011;58605;48.700;8.760;2023-07-29T09:52:50;2.10;;;1.90;;
70946;SDS011;58605;48.700;8.760;2023-07-29T09:55:17;2.13;;;1.83;;
70946;SDS011;58605;48.700;8.760;2023-07-29T09:57:46;3.03;;;2.27;;
70946;SDS011;58605;48.700;8.760;2023-07-29T10:00:12;1.80;;;1.70;;
70946;SDS011;58605;48.700;8.760;2023-07-29T10:02:39;1.88;;;1.67;;
70946;SDS011;58605;48.700;8.760;2023-07-29T10:05:06;2.93;;;2.20;;
70946;SDS011;58605;48.700;8.760;2023-07-29T10:07:34;5.53;;;1.65;;
70946;SDS011;58605;48.700;8.760;2023-07-29T10:10:01;2.33;;;2.03;;
70946;SDS011;58605;48.700;8.760;2023-07-29T10:12:29;3.15;;;2.17;;
70946;SDS011;58605;48.700;8.760;2023-07-29T10:15:00;2.03;;;1.70;;
70946;SDS011;58605;48.700;8.760;2023-07-29T10:17:28;2.33;;;1.97;;
70946;SDS011;58605;48.700;8.760;2023-07-29T10:19:55;3.35;;;2.20;;
70946;SDS011;58605;48.700;8.760;2023-07-29T10:22:24;5.60;;;1.90;;
70946;SDS011;58605;48.700;8.760;2023-07-29T10:24:53;2.22;;;1.75;;
70946;SDS011;58605;48.700;8.760;2023-07-29T10:27:22;5.68;;;2.72;;
70946;SDS011;58605;48.700;8.760;2023-07-29T10:29:50;2.30;;;1.80;;
70946;SDS011;58605;48.700;8.760;2023-07-29T10:32:21;3.00;;;2.35;;
70946;SDS011;58605;48.700;8.760;2023-07-29T10:34:50;2.88;;;1.58;;
70946;SDS011;58605;48.700;8.760;2023-07-29T10:37:16;2.65;;;2.08;;
70946;SDS011;58605;48.700;8.760;2023-07-29T10:39:51;2.53;;;1.87;;
70946;SDS011;58605;48.700;8.760;2023-07-29T10:42:19;2.00;;;1.53;;
70946;SDS011;58605;48.700;8.760;2023-07-29T10:44:45;2.17;;;1.90;;
70946;SDS011;58605;48.700;8.760;2023-07-29T10:47:14;3.50;;;1.55;;
70946;SDS011;58605;48.700;8.760;2023-07-29T10:49:42;2.08;;;1.73;;
70946;SDS011;58605;48.700;8.760;2023-07-29T10:52:11;1.52;;;1.40;;
70946;SDS011;58605;48.700;8.760;2023-07-29T10:54:42;1.95;;;1.52;;
70946;SDS011;58605;48.700;8.760;2023-07-29T10:57:12;5.30;;;2.13;;
70946;SDS011;58605;48.700;8.760;2023-07-29T10:59:39;1.33;;;1.15;;
70946;SDS011;58605;48.700;8.760;2023-07-29T11:02:11;1.38;;;1.15;;
70946;SDS011;58605;48.700;8.760;2023-07-29T11:04:50;1.50;;;1.40;;
70946;SDS011;58605;48.700;8.760;2023-07-29T11:07:20;1.90;;;1.52;;
70946;SDS011;58605;48.700;8.760;2023-07-29T11:09:52;2.53;;;1.30;;
70946;SDS011;58605;48.700;8.760;2023-07-29T11:12:34;3.05;;;1.30;;
70946;SDS011;58605;48.700;8.760;2023-07-29T11:15:03;2.08;;;1.77;;
70946;SDS011;58605;48.700;8.760;2023-07-29T11:17:30;2.75;;;1.67;;
70946;SDS011;58605;48.700;8.760;2023-07-29T11:20:01;2.70;;;1.70;;
70946;SDS011;58605;48.700;8.760;2023-07-29T11:22:28;2.13;;;1.60;;
70946;SDS011;58605;48.700;8.760;2023-07-29T11:24:55;1.52;;;1.42;;
70946;SDS011;58605;48.700;8.760;2023-07-29T11:27:21;2.13;;;1.92;;
70946;SDS011;58605;48.700;8.760;2023-07-29T11:29:48;2.33;;;1.75;;
70946;SDS011;58605;48.700;8.760;2023-07-29T11:32:14;1.92;;;1.60;;
70946;SDS011;58605;48.700;8.760;2023-07-29T11:34:41;4.13;;;1.73;;
70946;SDS011;58605;48.700;8.760;2023-07-29T11:37:10;2.50;;;1.80;;
70946;SDS011;58605;48.700;8.760;2023-07-29T11:39:39;1.95;;;1.60;;
70946;SDS011;58605;48.700;8.760;2023-07-29T11:42:06;2.47;;;1.73;;
70946;SDS011;58605;48.700;8.760;2023-07-29T11:44:32;2.83;;;2.15;;
70946;SDS011;58605;48.700;8.760;2023-07-29T11:46:58;2.90;;;2.20;;
70946;SDS011;58605;48.700;8.760;2023-07-29T11:49:24;1.77;;;1.50;;
70946;SDS011;58605;48.700;8.760;2023-07-29T11:51:50;2.53;;;1.73;;
70946;SDS011;58605;48.700;8.760;2023-07-29T11:54:19;2.63;;;1.75;;
70946;SDS011;58605;48.700;8.760;2023-07-29T11:56:46;2.33;;;2.10;;
70946;SDS011;58605;48.700;8.760;2023-07-29T11:59:13;3.20;;;2.10;;
70946;SDS011;58605;48.700;8.760;2023-07-29T12:01:40;3.53;;;1.93;;
70946;SDS011;58605;48.700;8.760;2023-07-29T12:04:06;2.78;;;1.90;;
70946;SDS011;58605;48.700;8.760;2023-07-29T12:06:32;2.45;;;1.88;;
70946;SDS011;58605;48.700;8.760;2023-07-29T12:08:58;4.15;;;2.58;;
70946;SDS011;58605;48.700;8.760;2023-07-29T12:11:27;3.47;;;2.25;;
70946;SDS011;58605;48.700;8.760;2023-07-29T12:13:53;2.33;;;2.13;;
70946;SDS011;58605;48.700;8.760;2023-07-29T12:16:19;3.42;;;2.40;;
70946;SDS011;58605;48.700;8.760;2023-07-29T12:18:46;3.90;;;2.50;;
70946;SDS011;58605;48.700;8.760;2023-07-29T12:21:13;2.97;;;2.20;;
70946;SDS011;58605;48.700;8.760;2023-07-29T12:23:40;3.30;;;2.22;;
70946;SDS011;58605;48.700;8.760;2023-07-29T12:26:06;2.10;;;1.90;;
70946;SDS011;58605;48.700;8.760;2023-07-29T12:28:33;2.05;;;1.85;;
70946;SDS011;58605;48.700;8.760;2023-07-29T12:30:59;2.80;;;2.00;;
70946;SDS011;58605;48.700;8.760;2023-07-29T12:33:29;2.30;;;2.00;;
70946;SDS011;58605;48.700;8.760;2023-07-29T12:35:55;3.25;;;1.80;;
70946;SDS011;58605;48.700;8.760;2023-07-29T12:38:22;4.05;;;2.47;;
70946;SDS011;58605;48.700;8.760;2023-07-29T12:40:48;4.60;;;2.40;;
70946;SDS011;58605;48.700;8.760;2023-07-29T12:43:14;2.42;;;2.13;;
70946;SDS011;58605;48.700;8.760;2023-07-29T12:45:42;4.00;;;2.55;;
70946;SDS011;58605;48.700;8.760;2023-07-29T12:48:09;6.50;;;2.83;;
70946;SDS011;58605;48.700;8.760;2023-07-29T12:50:35;2.90;;;2.03;;
70946;SDS011;58605;48.700;8.760;2023-07-29T12:53:02;3.00;;;1.90;;
70946;SDS011;58605;48.700;8.760;2023-07-29T12:55:28;3.72;;;2.10;;
70946;SDS011;58605;48.700;8.760;2023-07-29T12:57:54;2.22;;;1.88;;
70946;SDS011;58605;48.700;8.760;2023-07-29T13:00:20;2.70;;;1.73;;
70946;SDS011;58605;48.700;8.760;2023-07-29T13:02:47;2.10;;;1.90;;
70946;SDS011;58605;48.700;8.760;2023-07-29T13:05:14;3.03;;;2.30;;
70946;SDS011;58605;48.700;8.760;2023-07-29T13:07:40;3.20;;;1.90;;
70946;SDS011;58605;48.700;8.760;2023-07-29T13:10:06;2.80;;;2.17;;
70946;SDS011;58605;48.700;8.760;2023-07-29T13:12:33;2.33;;;1.95;;
70946;SDS011;58605;48.700;8.760;2023-07-29T13:14:59;2.70;;;1.83;;
70946;SDS011;58605;48.700;8.760;2023-07-29T13:17:25;4.43;;;2.03;;
70946;SDS011;58605;48.700;8.760;2023-07-29T13:19:53;2.17;;;1.98;;
70946;SDS011;58605;48.700;8.760;2023-07-29T13:22:26;1.88;;;1.67;;
70946;SDS011;58605;48.700;8.760;2023-07-29T13:24:58;3.47;;;2.22;;
70946;SDS011;58605;48.700;8.760;2023-07-29T13:27:24;2.47;;;2.20;;
70946;SDS011;58605;48.700;8.760;2023-07-29T13:29:52;2.97;;;2.05;;
70946;SDS011;58605;48.700;8.760;2023-07-29T13:32:20;4.55;;;2.33;;
70946;SDS011;58605;48.700;8.760;2023-07-29T13:37:43;2.95;;;2.33;;
70946;SDS011;58605;48.700;8.760;2023-07-29T13:40:09;2.45;;;2.00;;
70946;SDS011;58605;48.700;8.760;2023-07-29T13:42:35;2.38;;;2.15;;
70946;SDS011;58605;48.700;8.760;2023-07-29T13:45:02;2.25;;;1.85;;
70946;SDS011;58605;48.700;8.760;2023-07-29T13:47:28;1.80;;;1.70;;
70946;SDS011;58605;48.700;8.760;2023-07-29T13:49:54;2.13;;;1.92;;
70946;SDS011;58605;48.700;8.760;2023-07-29T13:52:21;2.42;;;2.13;;
70946;SDS011;58605;48.700;8.760;2023-07-29T13:54:47;2.28;;;2.08;;
70946;SDS011;58605;48.700;8.760;2023-07-29T13:57:14;4.43;;;1.92;;
70946;SDS011;58605;48.700;8.760;2023-07-29T13:59:40;2.03;;;1.83;;
70946;SDS011;58605;48.700;8.760;2023-07-29T14:02:06;2.42;;;2.00;;
70946;SDS011;58605;48.700;8.760;2023-07-29T14:04:32;3.05;;;2.30;;
70946;SDS011;58605;48.700;8.760;2023-07-29T14:06:58;2.38;;;2.15;;
70946;SDS011;58605;48.700;8.760;2023-07-29T14:09:26;3.95;;;2.10;;
70946;SDS011;58605;48.700;8.760;2023-07-29T14:11:53;3.15;;;1.75;;
70946;SDS011;58605;48.700;8.760;2023-07-29T14:14:19;1.85;;;1.73;;
70946;SDS011;58605;48.700;8.760;2023-07-29T14:16:45;1.55;;;1.42;;
70946;SDS011;58605;48.700;8.760;2023-07-29T14:19:12;2.63;;;2.03;;
70946;SDS011;58605;48.700;8.760;2023-07-29T14:21:38;2.25;;;2.00;;
70946;SDS011;58605;48.700;8.760;2023-07-29T14:24:05;3.67;;;2.55;;
70946;SDS011;58605;48.700;8.760;2023-07-29T14:26:32;3.15;;;2.25;;
70946;SDS011;58605;48.700;8.760;2023-07-29T14:28:58;3.50;;;2.30;;
70946;SDS011;58605;48.700;8.760;2023-07-29T14:31:25;3.03;;;2.20;;
70946;SDS011;58605;48.700;8.760;2023-07-29T14:33:51;2.15;;;1.67;;
70946;SDS011;58605;48.700;8.760;2023-07-29T14:36:17;5.03;;;2.53;;
70946;SDS011;58605;48.700;8.760;2023-07-29T14:38:43;2.22;;;1.80;;
70946;SDS011;58605;48.700;8.760;2023-07-29T14:41:09;2.03;;;1.75;;
70946;SDS011;58605;48.700;8.760;2023-07-29T14:43:37;4.05;;;2.00;;
70946;SDS011;58605;48.700;8.760;2023-07-29T14:46:03;3.72;;;2.60;;
70946;SDS011;58605;48.700;8.760;2023-07-29T14:48:29;2.30;;;2.00;;